Time;durP1;ratioP1;P1;durP2;ratioP2;P2;SDS_P1;SDS_P2;PMS_P1;PMS_P2;Temp;Humidity;BMP_temperature;BMP_pressure;BME280_temperature;BME280_humidity;BME280_pressure;Samples;Min_cycle;Max_cycle;Signal;HPM_P1;HPM_P2
2024/01/29 00:02:20;;;;;;;18.67;14.07;;;-0.40;99.90;;;;;;5078965;28;20021;-91
2024/01/29 00:04:46;;;;;;;18.83;11.95;;;-0.50;99.90;;;;;;5079164;28;20024;-90
2024/01/29 00:07:11;;;;;;;23.15;13.13;;;-0.50;99.90;;;;;;5054787;28;20112;-90
2024/01/29 00:09:37;;;;;;;21.40;13.70;;;-0.50;99.90;;;;;;5075918;28;20029;-92
2024/01/29 00:12:03;;;;;;;17.38;12.27;;;-0.50;99.90;;;;;;5076963;28;20032;-89
2024/01/29 00:14:28;;;;;;;22.00;13.30;;;-0.60;99.90;;;;;;5079043;28;20028;-93
2024/01/29 00:16:54;;;;;;;18.48;12.93;;;-0.70;99.90;;;;;;5079370;28;20024;-89
2024/01/29 00:19:20;;;;;;;20.67;12.32;;;-0.60;99.90;;;;;;5077783;28;20402;-90
2024/01/29 00:21:45;;;;;;;17.88;13.45;;;-0.60;99.90;;;;;;5060258;28;20020;-91
2024/01/29 00:24:11;;;;;;;19.88;12.75;;;-0.70;99.90;;;;;;5079368;28;20441;-92
2024/01/29 00:26:40;;;;;;;19.65;13.55;;;-0.70;99.90;;;;;;5082554;28;20070;-91
2024/01/29 00:29:05;;;;;;;20.15;12.57;;;-0.70;99.90;;;;;;5089441;28;20017;-91
2024/01/29 00:31:31;;;;;;;21.50;13.75;;;-0.70;99.90;;;;;;5073248;28;20032;-92
2024/01/29 00:33:57;;;;;;;17.33;12.20;;;-0.70;99.90;;;;;;5089156;28;20040;-92
2024/01/29 00:36:22;;;;;;;17.65;11.90;;;-0.70;99.90;;;;;;5089618;28;20443;-91
2024/01/29 00:38:48;;;;;;;16.23;12.73;;;-0.70;99.90;;;;;;5090146;28;20031;-92
2024/01/29 00:41:14;;;;;;;18.77;12.80;;;-0.70;99.90;;;;;;5088635;28;20025;-89
2024/01/29 00:43:39;;;;;;;17.17;12.35;;;-0.70;99.90;;;;;;5087771;28;20032;-92
2024/01/29 00:46:05;;;;;;;22.83;13.43;;;-0.70;99.90;;;;;;5096094;28;20024;-91
2024/01/29 00:48:30;;;;;;;20.40;12.05;;;-0.80;99.90;;;;;;5072942;28;20032;-91
2024/01/29 00:50:56;;;;;;;15.50;11.95;;;-0.70;99.90;;;;;;5087850;28;20024;-90
2024/01/29 00:53:22;;;;;;;18.98;13.32;;;-0.70;99.90;;;;;;5084514;28;20035;-90
2024/01/29 00:55:48;;;;;;;20.42;12.82;;;-0.80;99.90;;;;;;5081660;28;20056;-90
2024/01/29 00:58:16;;;;;;;17.98;12.27;;;-0.80;99.90;;;;;;5063399;28;20495;-91
2024/01/29 01:00:45;;;;;;;17.80;12.48;;;-0.80;99.90;;;;;;5073530;28;20020;-91
2024/01/29 01:03:11;;;;;;;18.92;13.25;;;-0.70;99.90;;;;;;5058387;28;20021;-92
2024/01/29 01:05:36;;;;;;;21.13;11.57;;;-0.80;99.90;;;;;;5065310;28;20035;-92
2024/01/29 01:08:03;;;;;;;20.08;13.13;;;-0.80;99.90;;;;;;5094630;28;20029;-95
2024/01/29 01:10:29;;;;;;;15.70;11.65;;;-0.80;99.90;;;;;;5062875;28;20029;-90
2024/01/29 01:12:54;;;;;;;16.05;11.82;;;-0.90;99.90;;;;;;5060648;28;20032;-91
2024/01/29 01:15:20;;;;;;;17.02;12.90;;;-0.90;99.90;;;;;;5068473;28;20380;-91
2024/01/29 01:17:46;;;;;;;17.70;11.98;;;-0.90;99.90;;;;;;5081519;28;20031;-89
2024/01/29 01:20:12;;;;;;;21.67;13.57;;;-0.90;99.90;;;;;;5081031;28;20046;-90
2024/01/29 01:22:38;;;;;;;23.35;12.10;;;-1.00;99.90;;;;;;5064123;28;20422;-90
2024/01/29 01:25:05;;;;;;;17.38;10.93;;;-1.00;99.90;;;;;;5081736;28;20599;-90
2024/01/29 01:27:31;;;;;;;21.60;13.80;;;-1.00;99.90;;;;;;5080343;28;20028;-92
2024/01/29 01:29:56;;;;;;;20.27;12.57;;;-1.00;99.90;;;;;;5080449;28;20105;-90
2024/01/29 01:32:22;;;;;;;23.17;12.90;;;-1.10;99.90;;;;;;5080035;28;20031;-89
2024/01/29 01:34:47;;;;;;;20.13;13.00;;;-1.00;99.90;;;;;;5082154;28;20048;-92
2024/01/29 01:37:13;;;;;;;18.48;13.95;;;-1.10;99.90;;;;;;5075213;28;20016;-91
2024/01/29 01:39:39;;;;;;;20.58;12.98;;;-1.00;99.90;;;;;;5080821;28;20048;-94
2024/01/29 01:42:04;;;;;;;19.98;14.13;;;-1.00;99.90;;;;;;5079821;28;20458;-90
2024/01/29 01:44:31;;;;;;;17.38;11.88;;;-0.90;99.90;;;;;;5081688;28;20084;-92
2024/01/29 01:46:57;;;;;;;18.98;12.13;;;-1.00;99.90;;;;;;5080616;28;20031;-91
2024/01/29 01:49:23;;;;;;;18.45;12.15;;;-1.00;99.90;;;;;;5058330;28;20032;-89
2024/01/29 01:51:50;;;;;;;20.40;12.38;;;-1.00;99.90;;;;;;5061906;28;20029;-90
2024/01/29 01:54:16;;;;;;;18.83;11.95;;;-1.00;99.90;;;;;;5079591;28;20436;-90
2024/01/29 01:56:42;;;;;;;20.42;11.80;;;-0.90;99.90;;;;;;5061487;28;20120;-92
2024/01/29 01:59:10;;;;;;;18.38;12.95;;;-0.90;99.90;;;;;;5073702;28;20058;-91
2024/01/29 02:01:36;;;;;;;19.10;11.80;;;-0.90;99.90;;;;;;5080703;28;20025;-90
2024/01/29 02:04:02;;;;;;;18.02;12.27;;;-0.90;99.90;;;;;;5062650;28;20027;-90
2024/01/29 02:06:29;;;;;;;18.92;11.98;;;-0.90;99.90;;;;;;5080817;28;20029;-91
2024/01/29 02:08:55;;;;;;;19.10;12.82;;;-0.90;99.90;;;;;;5079848;28;20514;-90
2024/01/29 02:11:20;;;;;;;20.27;13.43;;;-0.90;99.90;;;;;;5080067;28;20095;-89
2024/01/29 02:13:46;;;;;;;17.02;11.98;;;-0.90;99.90;;;;;;5080041;28;20390;-91
2024/01/29 02:16:12;;;;;;;24.20;13.63;;;-0.90;99.90;;;;;;5057565;28;20478;-90
2024/01/29 02:18:37;;;;;;;17.77;12.95;;;-1.00;99.90;;;;;;5060158;28;20024;-90
2024/01/29 02:21:03;;;;;;;15.85;11.00;;;-1.00;99.90;;;;;;5080574;28;20470;-92
2024/01/29 02:23:29;;;;;;;17.00;12.57;;;-1.00;99.90;;;;;;5065840;28;20032;-92
2024/01/29 02:25:55;;;;;;;18.60;12.93;;;-1.00;99.90;;;;;;5085047;28;20023;-89
2024/01/29 02:28:23;;;;;;;24.52;12.65;;;-1.10;99.90;;;;;;5083381;28;20029;-89
2024/01/29 02:30:49;;;;;;;18.33;12.85;;;-1.20;99.90;;;;;;5080877;28;20021;-91
2024/01/29 02:33:14;;;;;;;20.50;11.20;;;-1.10;99.90;;;;;;5079821;28;20489;-90
2024/01/29 02:35:40;;;;;;;15.18;10.48;;;-1.10;99.90;;;;;;5079692;28;20050;-91
2024/01/29 02:38:06;;;;;;;15.63;12.73;;;-1.20;99.90;;;;;;5080588;28;20025;-89
2024/01/29 02:40:31;;;;;;;15.50;11.20;;;-1.10;99.90;;;;;;5061444;28;20099;-91
2024/01/29 02:42:57;;;;;;;17.52;11.68;;;-1.20;99.90;;;;;;5061514;28;20017;-90
2024/01/29 02:45:23;;;;;;;17.10;11.70;;;-1.20;99.90;;;;;;5079673;28;20471;-92
2024/01/29 02:47:48;;;;;;;17.58;13.93;;;-1.20;99.90;;;;;;5062178;28;20047;-91
2024/01/29 02:50:14;;;;;;;19.42;12.15;;;-1.20;99.90;;;;;;5079953;28;20486;-90
2024/01/29 02:52:40;;;;;;;18.92;11.55;;;-1.20;99.90;;;;;;5079794;28;20032;-90
2024/01/29 02:55:06;;;;;;;18.35;11.55;;;-1.20;99.90;;;;;;5062562;28;20013;-91
2024/01/29 02:57:31;;;;;;;17.52;11.85;;;-1.20;99.90;;;;;;5062362;28;20028;-90
2024/01/29 02:59:57;;;;;;;18.35;13.13;;;-1.20;99.90;;;;;;5080584;28;20032;-91
2024/01/29 03:02:23;;;;;;;17.05;10.82;;;-1.20;99.90;;;;;;5060786;28;20024;-89
2024/01/29 03:04:48;;;;;;;19.30;12.70;;;-1.30;99.90;;;;;;5059257;28;20036;-92
2024/01/29 03:07:14;;;;;;;15.13;10.93;;;-1.30;99.90;;;;;;5070455;28;20135;-91
2024/01/29 03:09:40;;;;;;;15.68;11.60;;;-1.30;99.90;;;;;;5077823;28;20415;-89
2024/01/29 03:12:05;;;;;;;16.45;11.48;;;-1.40;99.90;;;;;;5079543;28;20025;-90
2024/01/29 03:14:31;;;;;;;18.88;12.10;;;-1.30;99.90;;;;;;5080915;28;20028;-90
2024/01/29 03:16:57;;;;;;;16.55;11.48;;;-1.30;99.90;;;;;;5062723;28;20079;-91
2024/01/29 03:19:22;;;;;;;18.15;12.38;;;-1.40;99.90;;;;;;5079338;28;20703;-91
2024/01/29 03:21:48;;;;;;;13.65;11.30;;;-1.30;99.90;;;;;;5075210;28;20051;-90
2024/01/29 03:24:15;;;;;;;19.33;11.32;;;-1.30;99.90;;;;;;5078946;28;20024;-90
2024/01/29 03:26:41;;;;;;;16.75;12.27;;;-1.20;99.90;;;;;;5079414;28;20021;-90
2024/01/29 03:29:06;;;;;;;14.50;10.80;;;-1.20;99.90;;;;;;5062195;28;20054;-91
2024/01/29 03:31:32;;;;;;;13.10;10.00;;;-1.10;99.90;;;;;;5079803;28;20028;-90
2024/01/29 03:33:57;;;;;;;13.45;8.85;;;-1.10;99.90;;;;;;5079440;28;20028;-91
2024/01/29 03:36:23;;;;;;;18.80;11.63;;;-1.10;99.90;;;;;;5058387;28;20029;-91
2024/01/29 03:38:49;;;;;;;15.45;11.20;;;-1.10;99.90;;;;;;5058243;28;20032;-90
2024/01/29 03:41:17;;;;;;;17.70;11.65;;;-1.20;99.90;;;;;;5059649;28;20045;-91
2024/01/29 03:43:43;;;;;;;15.15;11.77;;;-1.30;99.90;;;;;;5076530;28;20070;-88
2024/01/29 03:46:08;;;;;;;16.73;10.65;;;-1.30;99.90;;;;;;5060785;28;20075;-90
2024/01/29 03:48:34;;;;;;;15.98;11.35;;;-1.30;99.90;;;;;;5058061;28;20029;-90
2024/01/29 03:51:00;;;;;;;16.50;10.48;;;-1.30;99.90;;;;;;5061344;28;20075;-90
2024/01/29 03:53:25;;;;;;;15.70;10.75;;;-1.40;99.90;;;;;;5079156;28;20028;-91
2024/01/29 03:55:52;;;;;;;15.02;10.82;;;-1.40;99.90;;;;;;5079174;28;20036;-89
2024/01/29 03:58:19;;;;;;;14.70;11.50;;;-1.40;99.90;;;;;;5078949;28;20483;-91
2024/01/29 04:00:45;;;;;;;15.65;9.50;;;-1.30;99.90;;;;;;5044343;28;20471;-91
2024/01/29 04:03:10;;;;;;;16.40;12.10;;;-1.30;99.90;;;;;;5079961;28;20070;-91
2024/01/29 04:05:36;;;;;;;16.77;11.30;;;-1.30;99.90;;;;;;5057236;28;20116;-90
2024/01/29 04:08:02;;;;;;;17.75;12.32;;;-1.40;99.90;;;;;;5071895;28;20048;-90
2024/01/29 04:10:28;;;;;;;19.92;11.70;;;-1.40;99.90;;;;;;5078141;28;20110;-91
2024/01/29 04:12:53;;;;;;;15.27;10.25;;;-1.50;99.90;;;;;;5060706;28;20031;-90
2024/01/29 04:15:19;;;;;;;15.07;10.68;;;-1.50;99.90;;;;;;5078461;28;20548;-91
2024/01/29 04:17:44;;;;;;;15.13;11.10;;;-1.50;99.90;;;;;;5060593;28;20051;-90
2024/01/29 04:20:10;;;;;;;16.88;10.90;;;-1.50;99.90;;;;;;5078150;28;20382;-90
2024/01/29 04:22:36;;;;;;;14.23;10.40;;;-1.50;99.90;;;;;;5079119;28;20078;-90
2024/01/29 04:25:04;;;;;;;18.88;10.88;;;-1.50;99.90;;;;;;5060253;28;20548;-90
2024/01/29 04:27:30;;;;;;;18.00;11.07;;;-1.60;99.90;;;;;;5078271;28;20040;-89
2024/01/29 04:29:56;;;;;;;17.27;11.88;;;-1.50;99.90;;;;;;5079153;28;20025;-91
2024/01/29 04:32:22;;;;;;;18.00;12.70;;;-1.60;99.90;;;;;;5077767;28;20025;-92
2024/01/29 04:34:47;;;;;;;21.05;12.52;;;-1.60;99.90;;;;;;5077388;28;20036;-91
2024/01/29 04:37:14;;;;;;;18.75;11.02;;;-1.60;99.90;;;;;;5076597;28;20021;-89
2024/01/29 04:39:39;;;;;;;19.45;12.77;;;-1.60;99.90;;;;;;5061632;28;20040;-90
2024/01/29 04:42:06;;;;;;;16.73;12.00;;;-1.50;99.90;;;;;;5065903;28;20078;-91
2024/01/29 04:44:31;;;;;;;20.02;12.32;;;-1.50;99.90;;;;;;5045004;28;20031;-90
2024/01/29 04:46:58;;;;;;;16.92;12.32;;;-1.50;99.90;;;;;;5071386;28;20096;-91
2024/01/29 04:49:24;;;;;;;18.50;12.10;;;-1.50;99.90;;;;;;5079013;28;20027;-90
2024/01/29 04:51:50;;;;;;;15.25;9.98;;;-1.60;99.90;;;;;;5079222;28;20025;-90
2024/01/29 04:54:15;;;;;;;19.90;12.32;;;-1.60;99.90;;;;;;5061825;28;20383;-91
2024/01/29 04:56:41;;;;;;;18.38;12.20;;;-1.50;99.90;;;;;;5080558;28;20025;-91
2024/01/29 04:59:07;;;;;;;20.30;12.45;;;-1.60;99.90;;;;;;5061558;28;20041;-91
2024/01/29 05:01:33;;;;;;;19.35;12.45;;;-1.50;99.90;;;;;;5080572;28;20544;-92
2024/01/29 05:03:58;;;;;;;16.10;10.02;;;-1.60;99.90;;;;;;5063948;28;20017;-92
2024/01/29 05:06:24;;;;;;;19.20;13.23;;;-1.60;99.90;;;;;;5081596;28;20227;-91
2024/01/29 05:08:50;;;;;;;15.68;11.30;;;-1.50;99.90;;;;;;5061967;28;20487;-90
2024/01/29 05:11:15;;;;;;;17.45;11.95;;;-1.60;99.90;;;;;;5060617;28;20487;-91
2024/01/29 05:13:42;;;;;;;19.65;10.52;;;-1.60;99.90;;;;;;5074849;28;20095;-91
2024/01/29 05:16:10;;;;;;;14.40;11.38;;;-1.60;99.90;;;;;;5077518;28;20016;-90
2024/01/29 05:18:36;;;;;;;;;;;-1.70;99.90;;;;;;5069903;28;20029;-90
2024/01/29 05:21:02;;;;;;;15.00;9.52;;;-1.70;99.90;;;;;;5077962;28;19943;-90
2024/01/29 05:23:28;;;;;;;17.25;10.60;;;-1.70;99.90;;;;;;5077545;28;20025;-90
2024/01/29 05:25:54;;;;;;;16.63;10.30;;;-1.70;99.90;;;;;;5063300;28;20165;-91
2024/01/29 05:28:21;;;;;;;16.65;11.18;;;-1.70;99.90;;;;;;5079221;28;20055;-91
2024/01/29 05:30:47;;;;;;;15.77;11.35;;;-1.70;99.90;;;;;;5077143;28;20100;-90
2024/01/29 05:33:12;;;;;;;17.42;11.82;;;-1.60;99.90;;;;;;5085338;28;20064;-90
2024/01/29 05:35:38;;;;;;;19.83;12.65;;;-1.70;99.90;;;;;;5079118;28;20078;-91
2024/01/29 05:38:04;;;;;;;18.20;13.07;;;-1.70;99.90;;;;;;5079068;28;20084;-90
2024/01/29 05:40:30;;;;;;;19.77;11.95;;;-1.70;99.90;;;;;;5060931;28;20040;-92
2024/01/29 05:42:55;;;;;;;19.13;13.57;;;-1.70;99.90;;;;;;5079178;28;20111;-90
2024/01/29 05:45:22;;;;;;;16.55;11.32;;;-1.70;99.90;;;;;;5058634;28;20028;-89
2024/01/29 05:47:47;;;;;;;18.80;13.10;;;-1.70;99.90;;;;;;5079320;28;20025;-90
2024/01/29 05:50:14;;;;;;;17.67;14.50;;;-1.80;99.90;;;;;;5073611;28;20020;-91
2024/01/29 05:52:40;;;;;;;19.58;11.18;;;-1.80;99.90;;;;;;5069083;28;20113;-91
2024/01/29 05:55:06;;;;;;;21.25;14.18;;;-1.80;99.90;;;;;;5058532;28;20021;-90
2024/01/29 05:57:31;;;;;;;21.90;13.45;;;-1.80;99.90;;;;;;5057777;28;20059;-91
2024/01/29 05:59:57;;;;;;;24.67;15.43;;;-1.70;99.90;;;;;;5061178;28;20031;-92
2024/01/29 06:02:23;;;;;;;24.98;16.55;;;-1.60;99.90;;;;;;5091849;28;20024;-93
2024/01/29 06:04:48;;;;;;;21.52;13.30;;;-1.60;99.90;;;;;;5079732;28;20161;-90
2024/01/29 06:07:14;;;;;;;23.33;14.75;;;-1.60;99.90;;;;;;5080199;28;20084;-92
2024/01/29 06:09:40;;;;;;;21.05;14.77;;;-1.70;99.90;;;;;;5079489;28;20490;-88
2024/01/29 06:12:06;;;;;;;22.45;14.23;;;-1.70;99.90;;;;;;5080127;28;20535;-91
2024/01/29 06:14:32;;;;;;;24.05;13.95;;;-1.80;99.90;;;;;;5080260;28;20030;-91
2024/01/29 06:16:58;;;;;;;21.00;12.10;;;-1.70;99.90;;;;;;5050743;28;20056;-92
2024/01/29 06:19:24;;;;;;;22.88;12.85;;;-1.90;99.90;;;;;;5079785;28;20031;-90
2024/01/29 06:21:50;;;;;;;17.88;13.52;;;-1.90;99.90;;;;;;5062474;28;20036;-95
2024/01/29 06:24:16;;;;;;;20.67;12.80;;;-1.90;99.90;;;;;;5103127;28;20098;-95
2024/01/29 06:26:42;;;;;;;25.05;14.18;;;-1.90;99.90;;;;;;5073920;28;20009;-96
2024/01/29 06:29:08;;;;;;;22.15;13.55;;;-1.80;99.90;;;;;;5111261;28;20016;-94
2024/01/29 06:31:38;;;;;;;20.98;14.98;;;-1.90;99.90;;;;;;5099251;28;20025;-95
2024/01/29 06:34:04;;;;;;;23.15;14.88;;;-1.80;99.90;;;;;;5101440;28;20024;-88
2024/01/29 06:36:31;;;;;;;24.05;16.48;;;-1.70;99.90;;;;;;5081409;28;20059;-91
2024/01/29 06:38:58;;;;;;;23.95;14.98;;;-1.70;99.90;;;;;;5077923;28;20075;-89
2024/01/29 06:41:25;;;;;;;23.02;14.93;;;-1.70;99.90;;;;;;5068228;28;20135;-90
2024/01/29 06:43:51;;;;;;;22.85;14.60;;;-1.70;99.90;;;;;;5047314;28;20017;-91
2024/01/29 06:46:17;;;;;;;22.27;15.13;;;-1.70;99.90;;;;;;5070168;28;20032;-91
2024/01/29 06:48:44;;;;;;;20.67;13.93;;;-1.80;99.90;;;;;;5070373;28;20502;-92
2024/01/29 06:51:09;;;;;;;34.70;21.90;;;-1.80;99.90;;;;;;5066227;28;20046;-91
2024/01/29 06:53:36;;;;;;;23.40;13.40;;;-1.90;99.90;;;;;;5070081;28;20127;-91
2024/01/29 06:56:05;;;;;;;26.55;13.98;;;-2.00;99.90;;;;;;5050051;28;20035;-91
2024/01/29 06:58:31;;;;;;;18.15;13.43;;;-2.00;99.90;;;;;;5070118;28;20029;-91
2024/01/29 07:01:00;;;;;;;18.45;13.07;;;-2.00;99.90;;;;;;5066233;28;20017;-90
2024/01/29 07:03:26;;;;;;;21.35;13.85;;;-2.00;99.90;;;;;;5067378;28;20031;-91
2024/01/29 07:05:52;;;;;;;24.25;14.88;;;-1.90;99.90;;;;;;5070832;28;20016;-92
2024/01/29 07:08:18;;;;;;;21.35;15.25;;;-1.90;99.90;;;;;;5071005;28;20035;-90
2024/01/29 07:10:44;;;;;;;25.85;16.50;;;-2.00;99.90;;;;;;5067547;28;20052;-90
2024/01/29 07:13:10;;;;;;;23.05;14.50;;;-2.00;99.90;;;;;;5070252;28;20036;-91
2024/01/29 07:15:36;;;;;;;21.23;14.55;;;-1.90;99.90;;;;;;5077478;28;20552;-89
2024/01/29 07:18:02;;;;;;;25.25;14.05;;;-1.90;99.90;;;;;;5074039;28;20025;-90
2024/01/29 07:20:29;;;;;;;28.25;14.32;;;-1.90;99.90;;;;;;5070410;28;20471;-90
2024/01/29 07:22:56;;;;;;;20.35;13.35;;;-1.90;99.90;;;;;;5076240;28;20024;-91
2024/01/29 07:25:22;;;;;;;23.63;16.48;;;-1.90;99.90;;;;;;5057557;28;20020;-93
2024/01/29 07:27:48;;;;;;;24.30;16.17;;;-1.80;99.90;;;;;;5080115;28;20133;-90
2024/01/29 07:30:14;;;;;;;25.85;16.83;;;-1.80;99.90;;;;;;5074638;28;20020;-90
2024/01/29 07:32:40;;;;;;;27.40;17.98;;;-1.70;99.90;;;;;;5082012;28;20444;-90
2024/01/29 07:35:07;;;;;;;24.92;15.30;;;-1.70;99.90;;;;;;5090125;28;20055;-93
2024/01/29 07:37:32;;;;;;;22.52;18.33;;;-1.70;99.90;;;;;;5074888;28;20100;-89
2024/01/29 07:39:58;;;;;;;22.30;15.35;;;-1.70;99.90;;;;;;5076671;28;20025;-90
2024/01/29 07:42:24;;;;;;;21.38;16.60;;;-1.60;99.90;;;;;;5067957;28;20021;-89
2024/01/29 07:44:51;;;;;;;22.65;16.77;;;-1.60;99.90;;;;;;5048708;28;20037;-90
2024/01/29 07:47:17;;;;;;;25.35;14.77;;;-1.60;99.90;;;;;;5069409;28;20017;-90
2024/01/29 07:49:42;;;;;;;22.17;15.48;;;-1.50;99.90;;;;;;5073937;28;20494;-89
2024/01/29 07:52:09;;;;;;;20.88;13.52;;;-1.50;99.90;;;;;;5064561;28;20099;-90
2024/01/29 07:54:35;;;;;;;22.30;14.95;;;-1.50;99.90;;;;;;5073110;28;20118;-91
2024/01/29 07:57:01;;;;;;;29.00;15.98;;;-1.50;99.90;;;;;;5080294;28;20036;-90
2024/01/29 07:59:27;;;;;;;22.15;14.02;;;-1.40;99.90;;;;;;5077502;28;20028;-92
2024/01/29 08:01:53;;;;;;;22.60;15.45;;;-1.40;99.90;;;;;;5074406;28;20475;-90
2024/01/29 08:04:18;;;;;;;22.35;14.77;;;-1.30;99.90;;;;;;5075670;28;20029;-90
2024/01/29 08:06:44;;;;;;;24.88;15.90;;;-1.30;99.90;;;;;;5058100;28;20021;-90
2024/01/29 08:09:10;;;;;;;21.98;14.18;;;-1.30;99.90;;;;;;5057328;28;20039;-89
2024/01/29 08:11:36;;;;;;;26.88;17.55;;;-1.20;99.90;;;;;;5087852;28;20040;-89
2024/01/29 08:14:02;;;;;;;23.20;15.75;;;-1.10;99.90;;;;;;5083024;28;20048;-91
2024/01/29 08:16:27;;;;;;;23.10;15.90;;;-1.10;99.90;;;;;;5075473;28;20021;-90
2024/01/29 08:18:53;;;;;;;22.23;14.90;;;-1.00;99.90;;;;;;5075958;28;20028;-92
2024/01/29 08:21:19;;;;;;;21.42;14.77;;;-1.00;99.90;;;;;;5056901;28;20123;-89
2024/01/29 08:23:44;;;;;;;28.52;18.00;;;-0.90;99.90;;;;;;5057381;28;20104;-91
2024/01/29 08:26:10;;;;;;;23.00;17.08;;;-0.80;99.90;;;;;;5057641;28;20120;-90
2024/01/29 08:28:36;;;;;;;26.83;17.25;;;-0.80;99.90;;;;;;5076259;28;20032;-90
2024/01/29 08:31:02;;;;;;;32.08;19.45;;;-0.70;99.90;;;;;;5058097;28;20020;-90
2024/01/29 08:33:29;;;;;;;26.35;17.88;;;-0.60;99.90;;;;;;5076731;28;20049;-90
2024/01/29 08:35:55;;;;;;;29.15;19.48;;;-0.60;99.90;;;;;;5076532;28;20036;-89
2024/01/29 08:38:21;;;;;;;23.73;17.98;;;-0.50;99.90;;;;;;5070646;28;20074;-90
2024/01/29 08:40:47;;;;;;;30.30;18.85;;;-0.40;99.90;;;;;;5076332;28;20036;-91
2024/01/29 08:43:13;;;;;;;27.88;17.83;;;-0.30;99.90;;;;;;5077057;28;20050;-89
2024/01/29 08:45:39;;;;;;;32.42;20.15;;;-0.20;99.90;;;;;;5059294;28;20020;-90
2024/01/29 08:48:05;;;;;;;28.75;19.05;;;-0.20;99.90;;;;;;5084750;28;20016;-90
2024/01/29 08:50:31;;;;;;;36.92;21.42;;;-0.10;99.90;;;;;;5055490;28;20115;-91
2024/01/29 08:52:56;;;;;;;29.33;21.63;;;0.00;99.90;;;;;;5053121;28;20024;-90
2024/01/29 08:55:22;;;;;;;32.97;21.67;;;0.20;99.90;;;;;;5076277;28;20403;-90
2024/01/29 08:57:48;;;;;;;35.35;21.52;;;0.20;99.90;;;;;;5046681;28;20036;-89
2024/01/29 09:00:15;;;;;;;34.75;21.77;;;0.40;99.90;;;;;;5062415;28;20028;-88
2024/01/29 09:02:41;;;;;;;31.83;21.83;;;0.50;99.90;;;;;;5047747;28;20174;-89
2024/01/29 09:05:10;;;;;;;28.25;19.08;;;0.60;99.90;;;;;;5074657;28;20543;-91
2024/01/29 09:07:36;;;;;;;27.15;18.45;;;0.70;99.90;;;;;;5058320;28;20032;-91
2024/01/29 09:10:02;;;;;;;29.88;20.75;;;0.80;99.90;;;;;;5063552;28;20033;-91
2024/01/29 09:12:28;;;;;;;30.10;19.23;;;0.90;99.90;;;;;;5067732;28;20037;-91
2024/01/29 09:14:54;;;;;;;25.00;16.63;;;1.00;99.90;;;;;;5079694;28;20067;-93
2024/01/29 09:17:20;;;;;;;20.92;14.60;;;1.10;99.90;;;;;;5058925;28;20056;-91
2024/01/29 09:19:46;;;;;;;22.75;15.60;;;1.10;99.90;;;;;;5076534;28;20033;-94
2024/01/29 09:22:12;;;;;;;25.80;15.07;;;1.20;99.90;;;;;;5087734;28;20394;-90
2024/01/29 09:24:37;;;;;;;20.83;14.90;;;1.30;99.90;;;;;;5078022;28;20036;-89
2024/01/29 09:27:03;;;;;;;20.60;14.15;;;1.40;99.90;;;;;;5080891;28;20013;-90
2024/01/29 09:29:29;;;;;;;20.65;13.38;;;1.50;99.90;;;;;;5078606;28;20029;-91
2024/01/29 09:31:55;;;;;;;18.85;13.80;;;1.60;99.90;;;;;;5060675;28;20474;-91
2024/01/29 09:34:22;;;;;;;18.08;13.90;;;1.70;99.90;;;;;;5079234;28;20063;-91
2024/01/29 09:36:48;;;;;;;18.20;12.30;;;1.80;99.90;;;;;;5078849;28;20021;-90
2024/01/29 09:39:14;;;;;;;20.45;13.55;;;1.80;99.90;;;;;;5048003;28;20025;-90
2024/01/29 09:41:40;;;;;;;18.13;13.27;;;1.90;99.90;;;;;;5054557;28;20438;-91
2024/01/29 09:44:06;;;;;;;22.15;12.18;;;2.00;99.90;;;;;;5079771;28;20021;-90
2024/01/29 09:46:42;;;;;;;18.92;13.00;;;2.00;99.90;;;;;;5061579;28;20038;-91
2024/01/29 09:49:08;;;;;;;20.08;12.45;;;2.10;99.90;;;;;;5054740;28;20391;-91
2024/01/29 09:51:35;;;;;;;19.13;14.70;;;2.20;99.90;;;;;;5084272;28;20079;-90
2024/01/29 09:54:01;;;;;;;20.77;12.40;;;2.20;99.90;;;;;;5080993;28;20437;-92
2024/01/29 09:56:28;;;;;;;20.60;14.65;;;2.20;99.90;;;;;;5080932;28;20051;-91
2024/01/29 09:58:54;;;;;;;20.92;14.13;;;2.20;99.90;;;;;;5061490;28;20112;-89
2024/01/29 10:01:22;;;;;;;21.40;13.55;;;2.20;99.90;;;;;;5080059;28;20107;-90
2024/01/29 10:03:48;;;;;;;23.77;14.15;;;2.20;99.90;;;;;;5060532;28;20407;-88
2024/01/29 10:06:14;;;;;;;20.40;14.52;;;2.20;99.90;;;;;;5042969;28;20028;-90
2024/01/29 10:08:40;;;;;;;22.55;14.85;;;2.20;99.90;;;;;;5065681;28;20124;-90
2024/01/29 10:11:07;;;;;;;21.95;15.63;;;2.20;99.90;;;;;;5072580;28;20029;-88
2024/01/29 10:13:33;;;;;;;19.00;13.55;;;2.30;99.90;;;;;;5075121;28;20031;-90
2024/01/29 10:15:59;;;;;;;22.35;15.90;;;2.30;99.90;;;;;;5078792;28;20116;-91
2024/01/29 10:18:24;;;;;;;21.42;14.60;;;2.40;99.90;;;;;;5079401;28;20153;-91
2024/01/29 10:21:06;;;;;;;19.75;15.68;;;2.60;99.90;;;;;;5079175;28;20073;-90
2024/01/29 10:23:32;;;;;;;27.95;17.67;;;3.00;99.90;;;;;;5067167;28;20072;-89
2024/01/29 10:26:01;;;;;;;25.58;18.02;;;3.20;99.90;;;;;;5078060;28;20063;-91
2024/01/29 10:28:27;;;;;;;25.35;18.77;;;3.30;99.90;;;;;;5078042;28;20031;-90
2024/01/29 10:30:56;;;;;;;27.55;17.90;;;3.50;99.90;;;;;;5075239;28;20029;-91
2024/01/29 10:33:22;;;;;;;27.67;18.73;;;3.70;99.90;;;;;;5078559;28;20025;-91
2024/01/29 10:35:49;;;;;;;29.63;17.48;;;4.00;99.90;;;;;;5078311;28;20047;-91
2024/01/29 10:38:26;;;;;;;25.45;17.27;;;4.30;99.90;;;;;;5080921;28;20482;-91
2024/01/29 10:40:53;;;;;;;25.58;16.50;;;4.60;99.90;;;;;;5078793;28;20123;-90
2024/01/29 10:43:19;;;;;;;26.02;16.55;;;4.80;99.90;;;;;;5060705;28;20078;-90
2024/01/29 10:45:54;;;;;;;25.35;18.90;;;5.00;96.70;;;;;;5083138;28;20016;-92
2024/01/29 10:48:22;;;;;;;28.00;18.45;;;5.20;96.90;;;;;;5056156;28;20058;-90
2024/01/29 10:50:49;;;;;;;26.63;17.75;;;5.50;96.00;;;;;;5064393;28;20487;-89
2024/01/29 10:53:16;;;;;;;25.55;17.70;;;5.80;94.80;;;;;;5067638;28;20048;-91
2024/01/29 10:55:50;;;;;;;23.38;16.48;;;5.90;92.70;;;;;;5055251;28;20064;-90
2024/01/29 10:58:17;;;;;;;;;;;6.20;90.90;;;;;;5073031;28;20047;-90
2024/01/29 11:00:45;;;;;;;24.00;15.10;;;6.50;90.10;;;;;;5058439;28;20011;-91
2024/01/29 11:03:14;;;;;;;;;;;6.80;86.00;;;;;;5085898;28;20016;-93
2024/01/29 11:05:47;;;;;;;24.55;14.90;;;6.90;86.20;;;;;;5043304;28;19904;-90
2024/01/29 11:08:20;;;;;;;24.77;15.88;;;7.10;83.50;;;;;;5077539;28;20394;-90
2024/01/29 11:10:45;;;;;;;23.83;14.90;;;7.30;83.60;;;;;;5057464;28;20039;-92
2024/01/29 11:13:12;;;;;;;25.58;15.85;;;7.40;82.30;;;;;;5059304;28;20024;-91
2024/01/29 11:15:41;;;;;;;24.73;14.95;;;7.60;80.80;;;;;;5085764;28;20386;-90
2024/01/29 11:18:08;;;;;;;22.73;15.88;;;7.80;79.80;;;;;;5086607;28;20025;-90
2024/01/29 11:20:34;;;;;;;26.13;16.23;;;7.90;79.40;;;;;;5056647;28;20117;-92
2024/01/29 11:23:02;;;;;;;23.85;15.85;;;8.00;79.20;;;;;;5075481;28;20028;-91
2024/01/29 11:25:29;;;;;;;23.98;15.63;;;8.10;78.30;;;;;;5085039;28;20032;-91
2024/01/29 11:27:58;;;;;;;24.30;15.50;;;8.00;78.30;;;;;;5077320;28;20032;-91
2024/01/29 11:30:26;;;;;;;22.15;14.70;;;8.20;78.00;;;;;;5077041;28;20360;-91
2024/01/29 11:32:54;;;;;;;22.15;14.52;;;8.50;76.80;;;;;;5059372;28;20024;-90
2024/01/29 11:35:21;;;;;;;20.85;13.52;;;8.60;76.00;;;;;;5077667;28;20099;-90
2024/01/29 11:37:49;;;;;;;25.08;14.93;;;9.00;74.60;;;;;;5079286;28;20028;-92
2024/01/29 11:40:41;;;;;;;24.23;14.93;;;9.00;73.20;;;;;;5077454;28;20046;-92
2024/01/29 11:43:16;;;;;;;22.75;14.13;;;9.20;72.20;;;;;;5062518;28;20024;-91
2024/01/29 11:45:53;;;;;;;22.70;14.80;;;9.30;71.50;;;;;;5077843;28;20059;-91
2024/01/29 11:48:26;;;;;;;21.20;13.73;;;9.30;72.00;;;;;;5083191;28;20433;-91
2024/01/29 11:50:56;;;;;;;21.90;13.98;;;9.60;70.50;;;;;;5074756;28;20449;-90
2024/01/29 11:53:25;;;;;;;24.52;14.18;;;9.80;67.10;;;;;;5077871;28;20017;-89
2024/01/29 11:55:52;;;;;;;17.17;12.23;;;9.70;67.80;;;;;;5073724;28;20020;-91
2024/01/29 11:58:19;;;;;;;18.92;11.38;;;10.20;65.60;;;;;;5056189;28;20111;-91
2024/01/29 12:00:46;;;;;;;20.48;11.35;;;10.30;63.10;;;;;;5058180;28;20025;-93
2024/01/29 12:03:23;;;;;;;15.98;11.25;;;10.40;64.10;;;;;;5059721;28;20023;-91
2024/01/29 12:05:51;;;;;;;19.70;12.40;;;10.80;61.40;;;;;;5059292;28;20111;-90
2024/01/29 12:08:19;;;;;;;18.10;12.75;;;11.20;60.20;;;;;;5074569;28;20024;-91
2024/01/29 12:10:46;;;;;;;14.77;10.63;;;11.50;58.60;;;;;;5076335;28;20043;-91
2024/01/29 12:13:16;;;;;;;17.02;9.38;;;11.40;56.30;;;;;;5085542;28;20024;-91
2024/01/29 12:15:42;;;;;;;11.85;8.40;;;11.60;54.20;;;;;;5075048;28;20120;-91
2024/01/29 12:18:20;;;;;;;13.43;8.70;;;11.70;54.20;;;;;;5076745;28;20032;-91
2024/01/29 12:20:49;;;;;;;14.43;9.57;;;12.00;51.70;;;;;;5077800;28;20060;-92
2024/01/29 12:23:16;;;;;;;13.10;8.57;;;12.20;51.30;;;;;;5061402;28;20021;-89
2024/01/29 12:25:45;;;;;;;12.75;8.55;;;12.20;51.20;;;;;;5078944;28;20099;-88
2024/01/29 12:28:12;;;;;;;13.85;8.88;;;11.60;52.80;;;;;;5079962;28;20025;-91